Chesterfield, Canada
Current Conditions -  °F | °C
As of 11:00 AM on Monday 22 Dec 2014 (Local Time) from CYRT Reporting Station
Light Snow Light Snow  
Wind Chill: -11°   Ceiling: 900
Heat Index:   Visibility: 6mi
Dew Point:   Wind: 9mph
Humidity: 85%   Direction: 20°NNE
Pressure: 29.98"   Gusts: NA
Location:  63.33°N, 90.7°W
Report Text: CYRT 221700Z 02008KT 6SM -SN BKN009 OVC020 M16/M18 A2998 RMK ST5SC3 SLP157
Loading
Personal Weather Stations






























Interactive Weather Map New forecast layout! Learn more

10-Day Weather Forecast

Advertisements
Track Severe Weather on mobile